Terminal Aerodrome Forecast
Issued by NWS Cleveland, OH

Home | Current Version | Previous Version | Text Only | Print | Product List | Glossary On
Versions: 1 2 3 4 5 6 7 8 9 10 11 12 13 14 15 16 17 18 19 20 21 22
451
FTUS41 KCLE 110522
TAFTOL
TAF
KTOL 110522Z 1106/1206 30010KT P6SM SCT045
      TEMPO 1111/1115 BKN035
     FM111500 30009KT P6SM BKN035
     FM111800 28008KT P6SM SCT035
     FM112300 24004KT P6SM SCT035=

USA.gov is the U.S. government's official web portal to all federal, state and local government web resources and services.